Terminal Aerodrome Forecast
Issued by NWS

Home | Current Version | Previous Version | Text Only | Print | Product List | Glossary On
Versions: 1 2 3 4 5 6 7 8 9 10 11 12 13 14 15
000
FTUS46 KMTR 241100
TAFSTS
TAF
KSTS 241121Z 2412/2512 00000KT P6SM SCT120
     FM241800 22005KT P6SM FEW025 SCT035 BKN200
     FM242300 25010KT P6SM -SHRA SCT015 BKN025
     FM250400 26005KT P6SM VCSH BKN015 OVC020
     FM250600 VRB03KT P6SM -SHRA SCT020 BKN030 OVC040=

USA.gov is the U.S. government's official web portal to all federal, state and local government web resources and services.